sensor_id;sensor_type;location;lat;lon;timestamp;temperature;humidity
52709;DHT22;38606;52.986;6.980;2023-04-03T00:01:13;2.80;99.90
52709;DHT22;38606;52.986;6.980;2023-04-03T00:03:38;3.30;99.90
52709;DHT22;38606;52.986;6.980;2023-04-03T00:06:04;2.90;99.90
52709;DHT22;38606;52.986;6.980;2023-04-03T00:08:32;2.80;99.90
52709;DHT22;38606;52.986;6.980;2023-04-03T00:10:58;3.10;99.90
52709;DHT22;38606;52.986;6.980;2023-04-03T00:13:24;2.80;99.90
52709;DHT22;38606;52.986;6.980;2023-04-03T00:15:51;3.70;99.90
52709;DHT22;38606;52.986;6.980;2023-04-03T00:18:17;2.60;99.90
52709;DHT22;38606;52.986;6.980;2023-04-03T00:20:43;3.70;99.90
52709;DHT22;38606;52.986;6.980;2023-04-03T00:23:09;3.30;99.90
52709;DHT22;38606;52.986;6.980;2023-04-03T00:25:35;2.20;99.90
52709;DHT22;38606;52.986;6.980;2023-04-03T00:28:02;2.60;99.90
52709;DHT22;38606;52.986;6.980;2023-04-03T00:30:28;3.20;99.90
52709;DHT22;38606;52.986;6.980;2023-04-03T00:32:54;3.40;99.90
52709;DHT22;38606;52.986;6.980;2023-04-03T00:35:20;3.40;99.90
52709;DHT22;38606;52.986;6.980;2023-04-03T00:37:47;2.30;99.90
52709;DHT22;38606;52.986;6.980;2023-04-03T00:40:14;2.40;99.90
52709;DHT22;38606;52.986;6.980;2023-04-03T00:42:41;3.70;99.90
52709;DHT22;38606;52.986;6.980;2023-04-03T00:45:29;2.10;99.90
52709;DHT22;38606;52.986;6.980;2023-04-03T00:47:56;2.30;99.90
52709;DHT22;38606;52.986;6.980;2023-04-03T00:50:22;2.40;99.90
52709;DHT22;38606;52.986;6.980;2023-04-03T00:52:48;2.50;99.90
52709;DHT22;38606;52.986;6.980;2023-04-03T00:55:15;3.60;99.90
52709;DHT22;38606;52.986;6.980;2023-04-03T00:57:41;3.70;99.90
52709;DHT22;38606;52.986;6.980;2023-04-03T01:00:11;2.00;99.90
52709;DHT22;38606;52.986;6.980;2023-04-03T01:02:38;2.20;99.90
52709;DHT22;38606;52.986;6.980;2023-04-03T01:05:07;2.20;99.90
52709;DHT22;38606;52.986;6.980;2023-04-03T01:07:33;2.00;99.90
52709;DHT22;38606;52.986;6.980;2023-04-03T01:10:04;2.20;99.90
52709;DHT22;38606;52.986;6.980;2023-04-03T01:12:33;1.70;99.90
52709;DHT22;38606;52.986;6.980;2023-04-03T01:15:05;1.90;99.90
52709;DHT22;38606;52.986;6.980;2023-04-03T01:17:49;2.20;99.90
52709;DHT22;38606;52.986;6.980;2023-04-03T01:25:43;2.10;99.90
52709;DHT22;38606;52.986;6.980;2023-04-03T01:28:19;1.80;99.90
52709;DHT22;38606;52.986;6.980;2023-04-03T01:33:13;1.90;99.90
52709;DHT22;38606;52.986;6.980;2023-04-03T01:35:39;3.00;99.90
52709;DHT22;38606;52.986;6.980;2023-04-03T01:38:05;2.10;99.90
52709;DHT22;38606;52.986;6.980;2023-04-03T01:40:32;1.90;99.90
52709;DHT22;38606;52.986;6.980;2023-04-03T01:42:57;1.90;99.90
52709;DHT22;38606;52.986;6.980;2023-04-03T01:45:23;1.90;99.90
52709;DHT22;38606;52.986;6.980;2023-04-03T01:47:49;1.90;99.90
52709;DHT22;38606;52.986;6.980;2023-04-03T01:50:14;1.90;99.90
52709;DHT22;38606;52.986;6.980;2023-04-03T01:52:40;1.70;99.90
52709;DHT22;38606;52.986;6.980;2023-04-03T01:55:06;3.10;99.90
52709;DHT22;38606;52.986;6.980;2023-04-03T01:57:32;1.90;99.90
52709;DHT22;38606;52.986;6.980;2023-04-03T01:59:57;1.70;99.90
52709;DHT22;38606;52.986;6.980;2023-04-03T02:02:23;1.60;99.90
52709;DHT22;38606;52.986;6.980;2023-04-03T02:04:49;1.70;99.90
52709;DHT22;38606;52.986;6.980;2023-04-03T02:07:14;1.70;99.90
52709;DHT22;38606;52.986;6.980;2023-04-03T02:09:40;2.90;99.90
52709;DHT22;38606;52.986;6.980;2023-04-03T02:12:06;2.80;99.90
52709;DHT22;38606;52.986;6.980;2023-04-03T02:14:32;1.60;99.90
52709;DHT22;38606;52.986;6.980;2023-04-03T02:16:58;2.90;99.90
52709;DHT22;38606;52.986;6.980;2023-04-03T02:19:26;2.50;99.90
52709;DHT22;38606;52.986;6.980;2023-04-03T02:21:51;2.60;99.90
52709;DHT22;38606;52.986;6.980;2023-04-03T02:24:17;1.50;99.90
52709;DHT22;38606;52.986;6.980;2023-04-03T02:26:43;3.00;99.90
52709;DHT22;38606;52.986;6.980;2023-04-03T02:29:08;1.50;99.90
52709;DHT22;38606;52.986;6.980;2023-04-03T02:31:34;1.50;99.90
52709;DHT22;38606;52.986;6.980;2023-04-03T02:34:00;2.50;99.90
52709;DHT22;38606;52.986;6.980;2023-04-03T02:36:26;1.40;99.90
52709;DHT22;38606;52.986;6.980;2023-04-03T02:38:52;1.40;99.90
52709;DHT22;38606;52.986;6.980;2023-04-03T02:41:18;1.30;99.90
52709;DHT22;38606;52.986;6.980;2023-04-03T02:43:43;2.30;99.90
52709;DHT22;38606;52.986;6.980;2023-04-03T02:46:09;2.60;99.90
52709;DHT22;38606;52.986;6.980;2023-04-03T02:48:35;2.60;99.90
52709;DHT22;38606;52.986;6.980;2023-04-03T02:51:00;1.20;99.90
52709;DHT22;38606;52.986;6.980;2023-04-03T02:53:26;1.40;99.90
52709;DHT22;38606;52.986;6.980;2023-04-03T02:55:52;1.30;99.90
52709;DHT22;38606;52.986;6.980;2023-04-03T02:58:18;2.30;99.90
52709;DHT22;38606;52.986;6.980;2023-04-03T03:00:43;1.10;99.90
52709;DHT22;38606;52.986;6.980;2023-04-03T03:03:09;0.90;99.90
52709;DHT22;38606;52.986;6.980;2023-04-03T03:05:35;1.10;99.90
52709;DHT22;38606;52.986;6.980;2023-04-03T03:08:01;2.00;99.90
52709;DHT22;38606;52.986;6.980;2023-04-03T03:10:27;1.10;99.90
52709;DHT22;38606;52.986;6.980;2023-04-03T03:12:53;2.30;99.90
52709;DHT22;38606;52.986;6.980;2023-04-03T03:15:19;1.20;99.90
52709;DHT22;38606;52.986;6.980;2023-04-03T03:17:45;1.00;99.90
52709;DHT22;38606;52.986;6.980;2023-04-03T03:20:11;1.00;99.90
52709;DHT22;38606;52.986;6.980;2023-04-03T03:22:37;1.00;99.90
52709;DHT22;38606;52.986;6.980;2023-04-03T03:25:04;2.20;99.90
52709;DHT22;38606;52.986;6.980;2023-04-03T03:27:30;0.90;99.90
52709;DHT22;38606;52.986;6.980;2023-04-03T03:29:56;0.80;99.90
52709;DHT22;38606;52.986;6.980;2023-04-03T03:32:21;0.80;99.90
52709;DHT22;38606;52.986;6.980;2023-04-03T03:34:47;0.60;99.90
52709;DHT22;38606;52.986;6.980;2023-04-03T03:37:13;0.80;99.90
52709;DHT22;38606;52.986;6.980;2023-04-03T03:39:38;0.70;99.90
52709;DHT22;38606;52.986;6.980;2023-04-03T03:42:04;0.80;99.90
52709;DHT22;38606;52.986;6.980;2023-04-03T03:44:30;0.80;99.90
52709;DHT22;38606;52.986;6.980;2023-04-03T03:46:56;0.80;99.90
52709;DHT22;38606;52.986;6.980;2023-04-03T03:49:22;0.60;99.90
52709;DHT22;38606;52.986;6.980;2023-04-03T03:51:48;0.60;99.90
52709;DHT22;38606;52.986;6.980;2023-04-03T03:54:15;0.60;99.90
52709;DHT22;38606;52.986;6.980;2023-04-03T03:56:41;0.70;99.90
52709;DHT22;38606;52.986;6.980;2023-04-03T03:59:06;0.60;99.90
52709;DHT22;38606;52.986;6.980;2023-04-03T04:01:33;0.60;99.90
52709;DHT22;38606;52.986;6.980;2023-04-03T04:03:58;0.50;99.90
52709;DHT22;38606;52.986;6.980;2023-04-03T04:06:24;0.50;99.90
52709;DHT22;38606;52.986;6.980;2023-04-03T04:08:50;0.60;99.90
52709;DHT22;38606;52.986;6.980;2023-04-03T04:11:16;0.50;99.90
52709;DHT22;38606;52.986;6.980;2023-04-03T04:13:42;0.60;99.90
52709;DHT22;38606;52.986;6.980;2023-04-03T04:16:07;0.60;99.90
52709;DHT22;38606;52.986;6.980;2023-04-03T04:18:33;0.60;99.90
52709;DHT22;38606;52.986;6.980;2023-04-03T04:20:59;0.50;99.90
52709;DHT22;38606;52.986;6.980;2023-04-03T04:23:25;0.40;99.90
52709;DHT22;38606;52.986;6.980;2023-04-03T04:25:51;0.50;99.90
52709;DHT22;38606;52.986;6.980;2023-04-03T04:28:17;0.40;99.90
52709;DHT22;38606;52.986;6.980;2023-04-03T04:30:44;0.40;99.90
52709;DHT22;38606;52.986;6.980;2023-04-03T04:33:10;0.50;99.90
52709;DHT22;38606;52.986;6.980;2023-04-03T04:35:36;0.50;99.90
52709;DHT22;38606;52.986;6.980;2023-04-03T04:38:02;0.50;99.90
52709;DHT22;38606;52.986;6.980;2023-04-03T04:40:28;0.40;99.90
52709;DHT22;38606;52.986;6.980;2023-04-03T04:45:20;0.40;99.90
52709;DHT22;38606;52.986;6.980;2023-04-03T04:50:12;0.30;99.90
52709;DHT22;38606;52.986;6.980;2023-04-03T04:52:39;0.30;99.90
52709;DHT22;38606;52.986;6.980;2023-04-03T04:55:05;0.20;99.90
52709;DHT22;38606;52.986;6.980;2023-04-03T04:57:30;0.30;99.90
52709;DHT22;38606;52.986;6.980;2023-04-03T04:59:56;0.40;99.90
52709;DHT22;38606;52.986;6.980;2023-04-03T05:02:22;0.40;99.90
52709;DHT22;38606;52.986;6.980;2023-04-03T05:04:48;0.40;99.90
52709;DHT22;38606;52.986;6.980;2023-04-03T05:07:15;0.40;99.90
52709;DHT22;38606;52.986;6.980;2023-04-03T05:09:41;0.40;99.90
52709;DHT22;38606;52.986;6.980;2023-04-03T05:12:08;0.30;99.90
52709;DHT22;38606;52.986;6.980;2023-04-03T05:14:33;0.40;99.90
52709;DHT22;38606;52.986;6.980;2023-04-03T05:16:59;0.20;99.90
52709;DHT22;38606;52.986;6.980;2023-04-03T05:19:24;0.40;99.90
52709;DHT22;38606;52.986;6.980;2023-04-03T05:21:50;0.30;99.90
52709;DHT22;38606;52.986;6.980;2023-04-03T05:24:16;0.30;99.90
52709;DHT22;38606;52.986;6.980;2023-04-03T05:29:09;0.30;99.90
52709;DHT22;38606;52.986;6.980;2023-04-03T05:31:34;0.40;99.90
52709;DHT22;38606;52.986;6.980;2023-04-03T05:34:00;0.30;99.90
52709;DHT22;38606;52.986;6.980;2023-04-03T05:36:26;0.30;99.90
52709;DHT22;38606;52.986;6.980;2023-04-03T05:38:52;0.20;99.90
52709;DHT22;38606;52.986;6.980;2023-04-03T05:41:18;0.30;99.90
52709;DHT22;38606;52.986;6.980;2023-04-03T05:43:44;0.40;99.90
52709;DHT22;38606;52.986;6.980;2023-04-03T05:46:11;0.30;99.90
52709;DHT22;38606;52.986;6.980;2023-04-03T05:48:38;0.30;99.90
52709;DHT22;38606;52.986;6.980;2023-04-03T05:51:05;0.40;99.90
52709;DHT22;38606;52.986;6.980;2023-04-03T05:53:34;0.30;99.90
52709;DHT22;38606;52.986;6.980;2023-04-03T05:56:01;0.40;99.90
52709;DHT22;38606;52.986;6.980;2023-04-03T05:58:26;0.40;99.90
52709;DHT22;38606;52.986;6.980;2023-04-03T06:00:52;0.50;99.90
52709;DHT22;38606;52.986;6.980;2023-04-03T06:03:18;0.30;99.90
52709;DHT22;38606;52.986;6.980;2023-04-03T06:05:44;0.60;99.90
52709;DHT22;38606;52.986;6.980;2023-04-03T06:08:10;0.50;99.90
52709;DHT22;38606;52.986;6.980;2023-04-03T06:10:35;0.60;99.90
52709;DHT22;38606;52.986;6.980;2023-04-03T06:13:01;0.60;99.90
52709;DHT22;38606;52.986;6.980;2023-04-03T06:15:27;0.70;99.90
52709;DHT22;38606;52.986;6.980;2023-04-03T06:17:53;1.40;99.90
52709;DHT22;38606;52.986;6.980;2023-04-03T06:20:19;0.90;99.90
52709;DHT22;38606;52.986;6.980;2023-04-03T06:22:45;1.00;99.90
52709;DHT22;38606;52.986;6.980;2023-04-03T06:25:11;1.00;99.90
52709;DHT22;38606;52.986;6.980;2023-04-03T06:27:38;1.30;99.90
52709;DHT22;38606;52.986;6.980;2023-04-03T06:30:05;1.10;99.90
52709;DHT22;38606;52.986;6.980;2023-04-03T06:32:31;1.20;99.90
52709;DHT22;38606;52.986;6.980;2023-04-03T06:34:57;1.30;99.90
52709;DHT22;38606;52.986;6.980;2023-04-03T06:37:24;1.40;99.90
52709;DHT22;38606;52.986;6.980;2023-04-03T06:39:51;2.00;99.90
52709;DHT22;38606;52.986;6.980;2023-04-03T06:42:17;1.60;99.90
52709;DHT22;38606;52.986;6.980;2023-04-03T06:44:43;1.60;99.90
52709;DHT22;38606;52.986;6.980;2023-04-03T06:47:12;1.80;99.90
52709;DHT22;38606;52.986;6.980;2023-04-03T06:49:38;1.80;99.90
52709;DHT22;38606;52.986;6.980;2023-04-03T06:52:04;2.50;99.90
52709;DHT22;38606;52.986;6.980;2023-04-03T06:54:31;2.50;99.90
52709;DHT22;38606;52.986;6.980;2023-04-03T06:56:57;2.40;99.90
52709;DHT22;38606;52.986;6.980;2023-04-03T06:59:23;2.30;99.90
52709;DHT22;38606;52.986;6.980;2023-04-03T07:01:48;3.50;99.90
52709;DHT22;38606;52.986;6.980;2023-04-03T07:04:15;3.70;99.90
52709;DHT22;38606;52.986;6.980;2023-04-03T07:06:41;4.00;99.90
52709;DHT22;38606;52.986;6.980;2023-04-03T07:09:09;3.60;99.90
52709;DHT22;38606;52.986;6.980;2023-04-03T07:11:35;4.10;99.90
52709;DHT22;38606;52.986;6.980;2023-04-03T07:14:02;4.50;99.90
52709;DHT22;38606;52.986;6.980;2023-04-03T07:16:28;3.40;99.90
52709;DHT22;38606;52.986;6.980;2023-04-03T07:18:56;4.00;99.90
52709;DHT22;38606;52.986;6.980;2023-04-03T07:21:23;4.40;99.90
52709;DHT22;38606;52.986;6.980;2023-04-03T07:23:49;3.40;99.90
52709;DHT22;38606;52.986;6.980;2023-04-03T07:26:15;3.60;99.90
52709;DHT22;38606;52.986;6.980;2023-04-03T07:28:41;3.60;99.90
52709;DHT22;38606;52.986;6.980;2023-04-03T07:31:09;3.50;99.90
52709;DHT22;38606;52.986;6.980;2023-04-03T07:33:39;4.80;99.90
52709;DHT22;38606;52.986;6.980;2023-04-03T07:36:06;4.40;99.90
52709;DHT22;38606;52.986;6.980;2023-04-03T07:38:33;3.90;99.90
52709;DHT22;38606;52.986;6.980;2023-04-03T07:40:59;3.80;99.90
52709;DHT22;38606;52.986;6.980;2023-04-03T07:43:25;4.20;99.90
52709;DHT22;38606;52.986;6.980;2023-04-03T07:45:50;5.50;99.90
52709;DHT22;38606;52.986;6.980;2023-04-03T07:48:18;5.40;99.90
52709;DHT22;38606;52.986;6.980;2023-04-03T07:50:44;5.30;99.90
52709;DHT22;38606;52.986;6.980;2023-04-03T07:53:10;4.70;99.90
52709;DHT22;38606;52.986;6.980;2023-04-03T07:55:36;4.80;99.90
52709;DHT22;38606;52.986;6.980;2023-04-03T07:58:09;4.90;99.90
52709;DHT22;38606;52.986;6.980;2023-04-03T08:00:36;5.40;99.90
52709;DHT22;38606;52.986;6.980;2023-04-03T08:03:02;6.10;99.90
52709;DHT22;38606;52.986;6.980;2023-04-03T08:05:28;5.00;99.90
52709;DHT22;38606;52.986;6.980;2023-04-03T08:07:53;5.20;99.90
52709;DHT22;38606;52.986;6.980;2023-04-03T08:10:19;5.40;99.90
52709;DHT22;38606;52.986;6.980;2023-04-03T08:12:48;4.90;99.90
52709;DHT22;38606;52.986;6.980;2023-04-03T08:15:14;5.50;99.90
52709;DHT22;38606;52.986;6.980;2023-04-03T08:17:40;6.30;99.90
52709;DHT22;38606;52.986;6.980;2023-04-03T08:20:07;5.70;99.90
52709;DHT22;38606;52.986;6.980;2023-04-03T08:22:33;5.70;99.90
52709;DHT22;38606;52.986;6.980;2023-04-03T08:25:00;6.00;99.90
52709;DHT22;38606;52.986;6.980;2023-04-03T08:27:27;7.20;99.90
52709;DHT22;38606;52.986;6.980;2023-04-03T08:29:52;6.10;99.90
52709;DHT22;38606;52.986;6.980;2023-04-03T08:32:18;6.10;99.90
52709;DHT22;38606;52.986;6.980;2023-04-03T08:34:44;6.10;99.90
52709;DHT22;38606;52.986;6.980;2023-04-03T08:37:10;6.20;99.90
52709;DHT22;38606;52.986;6.980;2023-04-03T08:39:36;7.20;99.90
52709;DHT22;38606;52.986;6.980;2023-04-03T08:42:07;6.30;99.90
52709;DHT22;38606;52.986;6.980;2023-04-03T08:47:43;6.70;99.90
52709;DHT22;38606;52.986;6.980;2023-04-03T08:50:18;6.60;99.90
52709;DHT22;38606;52.986;6.980;2023-04-03T08:52:52;6.80;99.90
52709;DHT22;38606;52.986;6.980;2023-04-03T08:58:05;7.00;99.90
52709;DHT22;38606;52.986;6.980;2023-04-03T09:03:21;7.20;99.90
52709;DHT22;38606;52.986;6.980;2023-04-03T09:05:59;7.20;99.90
52709;DHT22;38606;52.986;6.980;2023-04-03T09:11:24;7.30;99.90
52709;DHT22;38606;52.986;6.980;2023-04-03T09:21:48;7.70;99.90
52709;DHT22;38606;52.986;6.980;2023-04-03T09:24:16;8.70;99.90
52709;DHT22;38606;52.986;6.980;2023-04-03T09:26:51;7.80;99.90
52709;DHT22;38606;52.986;6.980;2023-04-03T09:29:21;7.70;99.90
52709;DHT22;38606;52.986;6.980;2023-04-03T09:31:56;7.80;99.90
52709;DHT22;38606;52.986;6.980;2023-04-03T09:34:36;7.90;99.90
52709;DHT22;38606;52.986;6.980;2023-04-03T09:37:04;8.00;99.90
52709;DHT22;38606;52.986;6.980;2023-04-03T09:39:53;8.10;99.90
52709;DHT22;38606;52.986;6.980;2023-04-03T09:42:22;8.10;99.90
52709;DHT22;38606;52.986;6.980;2023-04-03T09:45:03;8.30;99.90
52709;DHT22;38606;52.986;6.980;2023-04-03T09:47:31;8.50;99.90
52709;DHT22;38606;52.986;6.980;2023-04-03T09:52:45;8.50;99.90
52709;DHT22;38606;52.986;6.980;2023-04-03T09:55:23;8.70;99.90
52709;DHT22;38606;52.986;6.980;2023-04-03T09:57:56;8.80;99.40
52709;DHT22;38606;52.986;6.980;2023-04-03T10:00:26;8.80;95.10
52709;DHT22;38606;52.986;6.980;2023-04-03T10:02:54;8.60;98.20
52709;DHT22;38606;52.986;6.980;2023-04-03T10:05:33;8.70;97.30
52709;DHT22;38606;52.986;6.980;2023-04-03T10:10:39;8.80;96.50
52709;DHT22;38606;52.986;6.980;2023-04-03T10:15:43;8.90;95.30
52709;DHT22;38606;52.986;6.980;2023-04-03T10:27:13;9.30;94.60
52709;DHT22;38606;52.986;6.980;2023-04-03T10:29:55;9.20;94.80
52709;DHT22;38606;52.986;6.980;2023-04-03T10:40:51;9.70;91.50
52709;DHT22;38606;52.986;6.980;2023-04-03T10:46:27;9.50;90.40
52709;DHT22;38606;52.986;6.980;2023-04-03T10:51:50;9.50;88.90
52709;DHT22;38606;52.986;6.980;2023-04-03T10:54:32;9.40;90.30
52709;DHT22;38606;52.986;6.980;2023-04-03T10:57:10;9.50;91.50
52709;DHT22;38606;52.986;6.980;2023-04-03T10:59:59;9.60;91.40
52709;DHT22;38606;52.986;6.980;2023-04-03T11:02:57;9.70;90.40
52709;DHT22;38606;52.986;6.980;2023-04-03T11:10:55;9.80;85.40
52709;DHT22;38606;52.986;6.980;2023-04-03T11:16:24;9.70;87.70
52709;DHT22;38606;52.986;6.980;2023-04-03T11:19:05;9.80;87.40
52709;DHT22;38606;52.986;6.980;2023-04-03T11:21:42;9.70;86.50
52709;DHT22;38606;52.986;6.980;2023-04-03T11:24:31;9.80;87.90
52709;DHT22;38606;52.986;6.980;2023-04-03T11:26:59;9.80;86.40
52709;DHT22;38606;52.986;6.980;2023-04-03T11:29:31;9.90;86.40
52709;DHT22;38606;52.986;6.980;2023-04-03T11:34:34;9.90;85.70
52709;DHT22;38606;52.986;6.980;2023-04-03T11:37:11;11.70;87.00
52709;DHT22;38606;52.986;6.980;2023-04-03T11:39:38;10.10;85.20
52709;DHT22;38606;52.986;6.980;2023-04-03T11:42:15;9.90;82.50
52709;DHT22;38606;52.986;6.980;2023-04-03T11:44:42;10.00;83.10
52709;DHT22;38606;52.986;6.980;2023-04-03T11:47:10;9.90;83.10
52709;DHT22;38606;52.986;6.980;2023-04-03T11:50:00;10.10;83.80
52709;DHT22;38606;52.986;6.980;2023-04-03T11:52:57;9.90;79.70
52709;DHT22;38606;52.986;6.980;2023-04-03T12:16:28;11.00;84.20
52709;DHT22;38606;52.986;6.980;2023-04-03T12:31:58;10.00;79.50
52709;DHT22;38606;52.986;6.980;2023-04-03T12:37:40;10.20;79.30
52709;DHT22;38606;52.986;6.980;2023-04-03T12:48:28;9.90;81.50
52709;DHT22;38606;52.986;6.980;2023-04-03T12:50:55;10.10;82.90
52709;DHT22;38606;52.986;6.980;2023-04-03T12:53:25;10.20;82.10
52709;DHT22;38606;52.986;6.980;2023-04-03T12:56:24;10.00;80.60
52709;DHT22;38606;52.986;6.980;2023-04-03T12:58:51;10.00;80.10
52709;DHT22;38606;52.986;6.980;2023-04-03T13:01:24;10.00;81.40
52709;DHT22;38606;52.986;6.980;2023-04-03T13:03:56;10.10;81.40
52709;DHT22;38606;52.986;6.980;2023-04-03T13:06:39;10.10;80.10
52709;DHT22;38606;52.986;6.980;2023-04-03T13:09:06;10.20;82.60
52709;DHT22;38606;52.986;6.980;2023-04-03T13:11:44;10.30;81.40
52709;DHT22;38606;52.986;6.980;2023-04-03T13:14:24;10.40;82.70
52709;DHT22;38606;52.986;6.980;2023-04-03T13:17:04;10.20;81.00
52709;DHT22;38606;52.986;6.980;2023-04-03T13:19:31;10.30;80.20
52709;DHT22;38606;52.986;6.980;2023-04-03T13:23:20;10.40;82.10
52709;DHT22;38606;52.986;6.980;2023-04-03T13:25:16;10.20;76.90
52709;DHT22;38606;52.986;6.980;2023-04-03T13:27:43;10.40;80.40
52709;DHT22;38606;52.986;6.980;2023-04-03T13:30:30;10.10;82.30
52709;DHT22;38606;52.986;6.980;2023-04-03T13:32:57;10.30;79.60
52709;DHT22;38606;52.986;6.980;2023-04-03T13:35:39;10.10;79.40
52709;DHT22;38606;52.986;6.980;2023-04-03T13:38:23;10.20;80.40
52709;DHT22;38606;52.986;6.980;2023-04-03T13:40:58;10.40;81.70
52709;DHT22;38606;52.986;6.980;2023-04-03T13:43:28;10.30;79.70
52709;DHT22;38606;52.986;6.980;2023-04-03T13:46:20;10.30;81.00
52709;DHT22;38606;52.986;6.980;2023-04-03T13:48:50;10.30;79.20
52709;DHT22;38606;52.986;6.980;2023-04-03T13:59:00;10.20;78.20
52709;DHT22;38606;52.986;6.980;2023-04-03T14:01:44;10.40;79.50
52709;DHT22;38606;52.986;6.980;2023-04-03T14:04:17;10.50;80.10
52709;DHT22;38606;52.986;6.980;2023-04-03T14:06:45;10.00;78.20
52709;DHT22;38606;52.986;6.980;2023-04-03T14:09:11;10.00;79.30
52709;DHT22;38606;52.986;6.980;2023-04-03T14:11:37;10.30;79.20
52709;DHT22;38606;52.986;6.980;2023-04-03T14:14:11;10.00;79.50
52709;DHT22;38606;52.986;6.980;2023-04-03T14:16:39;10.10;80.60
52709;DHT22;38606;52.986;6.980;2023-04-03T14:19:06;10.10;81.00
52709;DHT22;38606;52.986;6.980;2023-04-03T14:21:33;10.40;80.30
52709;DHT22;38606;52.986;6.980;2023-04-03T14:23:58;10.10;80.50
52709;DHT22;38606;52.986;6.980;2023-04-03T14:26:25;10.20;80.70
52709;DHT22;38606;52.986;6.980;2023-04-03T14:28:54;9.90;79.10
52709;DHT22;38606;52.986;6.980;2023-04-03T14:31:21;9.80;80.50
52709;DHT22;38606;52.986;6.980;2023-04-03T14:33:48;9.80;80.60
52709;DHT22;38606;52.986;6.980;2023-04-03T14:36:21;9.70;82.10
52709;DHT22;38606;52.986;6.980;2023-04-03T14:38:48;9.60;81.50
52709;DHT22;38606;52.986;6.980;2023-04-03T14:41:16;9.60;81.40
52709;DHT22;38606;52.986;6.980;2023-04-03T14:43:43;9.70;81.10
52709;DHT22;38606;52.986;6.980;2023-04-03T14:46:18;9.70;81.50
52709;DHT22;38606;52.986;6.980;2023-04-03T14:48:45;9.60;81.00
52709;DHT22;38606;52.986;6.980;2023-04-03T14:51:12;9.60;80.90
52709;DHT22;38606;52.986;6.980;2023-04-03T14:53:39;9.40;81.50
52709;DHT22;38606;52.986;6.980;2023-04-03T14:56:27;9.50;81.40
52709;DHT22;38606;52.986;6.980;2023-04-03T14:59:00;9.90;82.10
52709;DHT22;38606;52.986;6.980;2023-04-03T15:01:27;9.20;82.70
52709;DHT22;38606;52.986;6.980;2023-04-03T15:03:53;9.40;82.90
52709;DHT22;38606;52.986;6.980;2023-04-03T15:06:20;9.40;82.30
52709;DHT22;38606;52.986;6.980;2023-04-03T15:08:47;9.30;81.90
52709;DHT22;38606;52.986;6.980;2023-04-03T15:11:13;9.20;82.70
52709;DHT22;38606;52.986;6.980;2023-04-03T15:13:40;9.20;82.40
52709;DHT22;38606;52.986;6.980;2023-04-03T15:16:17;9.30;82.80
52709;DHT22;38606;52.986;6.980;2023-04-03T15:18:44;9.20;81.50
52709;DHT22;38606;52.986;6.980;2023-04-03T15:21:10;11.00;83.30
52709;DHT22;38606;52.986;6.980;2023-04-03T15:23:36;9.30;82.80
52709;DHT22;38606;52.986;6.980;2023-04-03T15:26:03;9.80;83.00
52709;DHT22;38606;52.986;6.980;2023-04-03T15:28:37;9.20;82.70
52709;DHT22;38606;52.986;6.980;2023-04-03T15:31:04;9.20;83.20
52709;DHT22;38606;52.986;6.980;2023-04-03T15:33:31;9.20;83.10
52709;DHT22;38606;52.986;6.980;2023-04-03T15:35:58;9.10;83.00
52709;DHT22;38606;52.986;6.980;2023-04-03T15:38:24;9.20;82.70
52709;DHT22;38606;52.986;6.980;2023-04-03T15:40:50;9.10;82.40
52709;DHT22;38606;52.986;6.980;2023-04-03T15:43:16;9.10;82.70
52709;DHT22;38606;52.986;6.980;2023-04-03T15:45:42;10.10;83.70
52709;DHT22;38606;52.986;6.980;2023-04-03T15:48:09;9.00;82.80
52709;DHT22;38606;52.986;6.980;2023-04-03T15:50:35;9.00;83.00
52709;DHT22;38606;52.986;6.980;2023-04-03T15:53:01;8.90;82.80
52709;DHT22;38606;52.986;6.980;2023-04-03T15:55:32;9.00;83.20
52709;DHT22;38606;52.986;6.980;2023-04-03T15:58:00;8.70;83.50
52709;DHT22;38606;52.986;6.980;2023-04-03T16:00:27;8.70;83.20
52709;DHT22;38606;52.986;6.980;2023-04-03T16:02:59;8.90;83.40
52709;DHT22;38606;52.986;6.980;2023-04-03T16:05:26;8.90;83.50
52709;DHT22;38606;52.986;6.980;2023-04-03T16:07:52;8.50;83.10
52709;DHT22;38606;52.986;6.980;2023-04-03T16:10:19;8.90;84.00
52709;DHT22;38606;52.986;6.980;2023-04-03T16:12:45;8.70;83.50
52709;DHT22;38606;52.986;6.980;2023-04-03T16:15:11;8.90;83.80
52709;DHT22;38606;52.986;6.980;2023-04-03T16:17:38;8.70;82.80
52709;DHT22;38606;52.986;6.980;2023-04-03T16:20:07;8.70;83.20
52709;DHT22;38606;52.986;6.980;2023-04-03T16:22:34;8.60;83.00
52709;DHT22;38606;52.986;6.980;2023-04-03T16:25:00;8.80;83.70
52709;DHT22;38606;52.986;6.980;2023-04-03T16:27:26;8.60;83.70
52709;DHT22;38606;52.986;6.980;2023-04-03T16:29:54;8.50;83.40
52709;DHT22;38606;52.986;6.980;2023-04-03T16:32:21;8.70;83.90
52709;DHT22;38606;52.986;6.980;2023-04-03T16:34:48;8.50;84.30
52709;DHT22;38606;52.986;6.980;2023-04-03T16:37:14;8.80;85.50
52709;DHT22;38606;52.986;6.980;2023-04-03T16:39:40;8.50;83.70
52709;DHT22;38606;52.986;6.980;2023-04-03T16:42:06;8.50;84.00
52709;DHT22;38606;52.986;6.980;2023-04-03T16:44:32;8.50;83.90
52709;DHT22;38606;52.986;6.980;2023-04-03T16:46:57;8.40;83.40
52709;DHT22;38606;52.986;6.980;2023-04-03T16:49:24;8.60;83.70
52709;DHT22;38606;52.986;6.980;2023-04-03T16:51:50;8.30;84.00
52709;DHT22;38606;52.986;6.980;2023-04-03T16:54:16;8.20;84.00
52709;DHT22;38606;52.986;6.980;2023-04-03T16:56:42;8.40;84.70
52709;DHT22;38606;52.986;6.980;2023-04-03T16:59:07;8.40;85.10
52709;DHT22;38606;52.986;6.980;2023-04-03T17:01:33;8.50;85.00
52709;DHT22;38606;52.986;6.980;2023-04-03T17:03:59;8.30;85.00
52709;DHT22;38606;52.986;6.980;2023-04-03T17:06:25;8.20;84.80
52709;DHT22;38606;52.986;6.980;2023-04-03T17:08:51;8.20;85.20
52709;DHT22;38606;52.986;6.980;2023-04-03T17:11:18;8.00;84.80
52709;DHT22;38606;52.986;6.980;2023-04-03T17:13:43;8.10;85.20
52709;DHT22;38606;52.986;6.980;2023-04-03T17:16:12;8.10;85.40
52709;DHT22;38606;52.986;6.980;2023-04-03T17:18:39;8.00;86.20
52709;DHT22;38606;52.986;6.980;2023-04-03T17:21:05;8.10;86.40
52709;DHT22;38606;52.986;6.980;2023-04-03T17:23:32;8.10;86.70
52709;DHT22;38606;52.986;6.980;2023-04-03T17:26:00;8.10;87.40
52709;DHT22;38606;52.986;6.980;2023-04-03T17:28:26;8.00;87.60
52709;DHT22;38606;52.986;6.980;2023-04-03T17:30:59;6.30;86.40
52709;DHT22;38606;52.986;6.980;2023-04-03T17:33:26;7.90;88.40
52709;DHT22;38606;52.986;6.980;2023-04-03T17:35:56;8.40;88.80
52709;DHT22;38606;52.986;6.980;2023-04-03T17:38:22;7.70;88.80
52709;DHT22;38606;52.986;6.980;2023-04-03T17:40:48;7.80;88.80
52709;DHT22;38606;52.986;6.980;2023-04-03T17:43:13;7.70;89.40
52709;DHT22;38606;52.986;6.980;2023-04-03T17:45:40;7.50;89.70
52709;DHT22;38606;52.986;6.980;2023-04-03T17:48:06;7.60;90.10
52709;DHT22;38606;52.986;6.980;2023-04-03T17:50:31;7.50;90.20
52709;DHT22;38606;52.986;6.980;2023-04-03T17:52:57;9.00;90.90
52709;DHT22;38606;52.986;6.980;2023-04-03T17:55:23;7.40;91.10
52709;DHT22;38606;52.986;6.980;2023-04-03T17:57:49;7.40;91.30
52709;DHT22;38606;52.986;6.980;2023-04-03T18:00:15;7.30;91.30
52709;DHT22;38606;52.986;6.980;2023-04-03T18:02:41;7.10;91.40